createdAt,value
2022-09-23T00:00:34.661Z,99243.78
2022-09-23T00:03:01.743Z,99242.47
2022-09-23T00:05:29.949Z,99248.94
2022-09-23T00:07:57.144Z,99246.41
2022-09-23T00:10:25.502Z,99241.28
2022-09-23T00:12:53.055Z,99243.31
2022-09-23T00:15:21.483Z,99246.16
2022-09-23T00:17:48.399Z,99248.31
2022-09-23T00:20:15.235Z,99244.84
2022-09-23T00:22:42.026Z,99249.00
2022-09-23T00:25:10.333Z,99238.03
2022-09-23T00:27:37.972Z,99244.25
2022-09-23T00:30:07.233Z,99238.03
2022-09-23T00:32:36.595Z,99247.84
2022-09-23T00:35:04.244Z,99238.03
2022-09-23T00:37:31.535Z,99236.38
2022-09-23T00:40:00.838Z,99231.94
2022-09-23T00:42:27.683Z,99230.06
2022-09-23T00:44:56.078Z,99232.44
2022-09-23T00:47:29.522Z,99232.94
2022-09-23T00:50:03.521Z,99234.69
2022-09-23T00:52:32.223Z,99228.00
2022-09-23T00:55:02.562Z,99224.91
2022-09-23T00:57:31.276Z,99226.63
2022-09-23T00:59:58.385Z,99230.66
2022-09-23T01:02:26.202Z,99226.16
2022-09-23T01:04:53.136Z,99215.66
2022-09-23T01:07:21.913Z,99211.22
2022-09-23T01:09:49.737Z,99212.16
2022-09-23T01:12:34.477Z,99213.84
2022-09-23T01:15:11.531Z,99214.91
2022-09-23T01:21:37.594Z,99213.69
2022-09-23T01:24:26.399Z,99210.47
2022-09-23T01:27:00.980Z,99210.72
2022-09-23T01:29:53.594Z,99209.06
2022-09-23T01:32:32.180Z,99202.25
2022-09-23T01:35:07.319Z,99207.28
2022-09-23T01:37:41.043Z,99204.03
2022-09-23T01:40:15.288Z,99205.34
2022-09-23T01:42:47.788Z,99207.50
2022-09-23T01:45:21.546Z,99202.47
2022-09-23T01:47:55.219Z,99197.97
2022-09-23T01:50:45.537Z,99200.59
2022-09-23T01:53:19.697Z,99199.38
2022-09-23T01:55:51.631Z,99190.09
2022-09-23T01:58:22.290Z,99196.28
2022-09-23T02:00:54.159Z,99195.34
2022-09-23T02:03:27.372Z,99198.91
2022-09-23T02:05:59.377Z,99197.84
2022-09-23T02:08:31.926Z,99196.75
2022-09-23T02:11:04.691Z,99200.59
2022-09-23T02:13:40.009Z,99198.91
2022-09-23T02:16:12.196Z,99185.91
2022-09-23T02:18:46.210Z,99190.56
2022-09-23T02:21:15.778Z,99185.91
2022-09-23T02:23:45.827Z,99197.34
2022-09-23T02:26:19.729Z,99195.94
2022-09-23T02:28:56.037Z,99193.91
2022-09-23T02:31:33.139Z,99198.41
2022-09-23T02:34:10.537Z,99204.50
2022-09-23T02:36:44.927Z,99207.47
2022-09-23T02:39:14.466Z,99207.84
2022-09-23T02:41:55.819Z,99202.09
2022-09-23T02:44:24.097Z,99197.22
2022-09-23T02:46:52.918Z,99198.88
2022-09-23T02:49:23.872Z,99201.72
2022-09-23T02:51:51.366Z,99204.56
2022-09-23T02:54:20.859Z,99198.72
2022-09-23T02:56:50.391Z,99202.41
2022-09-23T02:59:19.565Z,99199.91
2022-09-23T03:02:07.955Z,99199.78
2022-09-23T03:04:50.513Z,99200.88
2022-09-23T03:07:21.036Z,99193.34
2022-09-23T03:09:54.673Z,99195.13
2022-09-23T03:12:36.065Z,99193.34
2022-09-23T03:15:16.972Z,99200.25
2022-09-23T03:17:51.265Z,99198.31
2022-09-23T03:20:26.159Z,99195.09
2022-09-23T03:23:00.868Z,99201.16
2022-09-23T03:25:33.288Z,99194.88
2022-09-23T03:28:01.689Z,99196.66
2022-09-23T03:30:30.852Z,99190.94
2022-09-23T03:33:00.973Z,99187.94
2022-09-23T03:35:33.170Z,99188.25
2022-09-23T03:38:08.348Z,99188.47
2022-09-23T03:40:41.929Z,99191.09
2022-09-23T03:43:09.912Z,99190.38
2022-09-23T03:45:36.785Z,99197.50
2022-09-23T03:48:04.410Z,99187.88
2022-09-23T03:50:32.614Z,99201.09
2022-09-23T03:52:59.437Z,99190.72
2022-09-23T03:55:26.256Z,99191.78
2022-09-23T03:57:53.350Z,99188.47
2022-09-23T04:00:20.359Z,99187.72
2022-09-23T04:02:47.203Z,99183.44
2022-09-23T04:05:14.067Z,99180.06
2022-09-23T04:07:42.614Z,99177.72
2022-09-23T04:10:10.205Z,99178.53
2022-09-23T04:12:37.755Z,99174.13
2022-09-23T04:15:05.673Z,99177.06
2022-09-23T04:17:32.544Z,99186.00
2022-09-23T04:19:59.391Z,99181.94
2022-09-23T04:22:26.248Z,99183.59
2022-09-23T04:24:54.773Z,99175.75
2022-09-23T04:27:21.633Z,99172.19
2022-09-23T04:29:48.504Z,99177.53
2022-09-23T04:32:15.414Z,99166.44
2022-09-23T04:34:43.396Z,99174.28
2022-09-23T04:37:10.217Z,99166.53
2022-09-23T04:39:37.101Z,99164.19
2022-09-23T04:42:05.587Z,99164.28
2022-09-23T04:44:33.073Z,99163.66
2022-09-23T04:46:59.994Z,99166.91
2022-09-23T04:49:26.952Z,99165.25
2022-09-23T04:51:54.295Z,99172.13
2022-09-23T04:54:21.175Z,99166.06
2022-09-23T04:56:48.052Z,99169.53
2022-09-23T04:59:16.537Z,99167.84
2022-09-23T05:01:43.794Z,99163.44
2022-09-23T05:04:13.936Z,99159.31
2022-09-23T05:06:43.986Z,99157.47
2022-09-23T05:09:16.624Z,99156.06
2022-09-23T05:11:44.290Z,99158.09
2022-09-23T05:14:11.242Z,99163.13
2022-09-23T05:16:39.579Z,99166.69
2022-09-23T05:19:06.717Z,99165.16
2022-09-23T05:21:33.603Z,99161.56
2022-09-23T05:24:00.955Z,99163.50
2022-09-23T05:26:30.289Z,99162.31
2022-09-23T05:28:57.188Z,99168.03
2022-09-23T05:31:26.237Z,99171.50
2022-09-23T05:33:57.369Z,99174.84
2022-09-23T05:36:25.521Z,99171.16
2022-09-23T05:38:52.723Z,99178.53
2022-09-23T05:41:23.129Z,99186.13
2022-09-23T05:43:51.671Z,99182.56
2022-09-23T05:46:20.154Z,99185.91
2022-09-23T05:48:47.625Z,99183.06
2022-09-23T05:51:18.457Z,99188.56
2022-09-23T05:53:46.055Z,99192.88
2022-09-23T05:56:14.190Z,99194.31
2022-09-23T05:58:41.179Z,99200.38
2022-09-23T06:01:13.312Z,99197.22
2022-09-23T06:03:40.991Z,99201.63
2022-09-23T06:06:14.663Z,99207.50
2022-09-23T06:08:43.041Z,99197.84
2022-09-23T06:11:11.632Z,99197.25
2022-09-23T06:13:39.517Z,99197.97
2022-09-23T06:16:08.102Z,99193.91
2022-09-23T06:18:35.706Z,99194.84
2022-09-23T06:21:04.810Z,99191.53
2022-09-23T06:23:31.988Z,99185.56
2022-09-23T06:26:05.344Z,99188.03
2022-09-23T06:28:33.898Z,99187.19
2022-09-23T06:31:03.289Z,99182.38
2022-09-23T06:33:36.828Z,99186.84
2022-09-23T06:36:05.791Z,99190.34
2022-09-23T06:38:35.788Z,99192.75
2022-09-23T06:41:04.283Z,99192.03
2022-09-23T06:43:31.331Z,99197.53
2022-09-23T06:45:59.586Z,99195.75
2022-09-23T06:48:27.409Z,99191.78
2022-09-23T06:50:58.148Z,99187.31
2022-09-23T06:53:25.615Z,99188.06
2022-09-23T06:55:58.814Z,99183.28
2022-09-23T06:58:27.645Z,99184.00
2022-09-23T07:00:55.163Z,99180.66
2022-09-23T07:03:22.301Z,99185.84
2022-09-23T07:05:49.154Z,99181.63
2022-09-23T07:08:16.462Z,99187.63
2022-09-23T07:10:43.275Z,99191.56
2022-09-23T07:13:14.178Z,99184.78
2022-09-23T07:15:49.415Z,99184.66
2022-09-23T07:18:16.424Z,99188.25
2022-09-23T07:20:43.244Z,99185.09
2022-09-23T07:23:10.146Z,99183.09
2022-09-23T07:25:36.977Z,99182.06
2022-09-23T07:28:03.877Z,99185.56
2022-09-23T07:30:30.735Z,99189.69
2022-09-23T07:32:59.055Z,99184.88
2022-09-23T07:35:28.114Z,99189.75
2022-09-23T07:37:55.002Z,99187.59
2022-09-23T07:40:22.077Z,99185.59
2022-09-23T07:42:48.970Z,99188.75
2022-09-23T07:45:15.806Z,99187.91
2022-09-23T07:47:42.722Z,99189.13
2022-09-23T07:50:11.597Z,99190.97
2022-09-23T07:52:39.392Z,99189.78
2022-09-23T07:55:07.130Z,99187.06
2022-09-23T07:57:34.133Z,99193.34
2022-09-23T08:00:03.835Z,99199.50
2022-09-23T08:02:38.496Z,99198.28
2022-09-23T08:05:06.716Z,99195.88
2022-09-23T08:07:34.981Z,99191.84
2022-09-23T08:10:02.684Z,99193.72
2022-09-23T08:12:31.613Z,99194.16
2022-09-23T08:15:00.407Z,99190.84
2022-09-23T08:17:27.484Z,99194.38
2022-09-23T08:19:54.349Z,99187.88
2022-09-23T08:22:21.167Z,99191.72
2022-09-23T08:24:49.550Z,99188.75
2022-09-23T08:27:16.526Z,99184.28
2022-09-23T08:29:43.326Z,99190.09
2022-09-23T08:32:10.238Z,99190.44
2022-09-23T08:34:37.069Z,99189.25
2022-09-23T08:37:04.126Z,99180.06
2022-09-23T08:39:31.341Z,99186.44
2022-09-23T08:42:11.914Z,99181.00
2022-09-23T08:44:47.047Z,99175.84
2022-09-23T08:47:20.252Z,99178.84
2022-09-23T08:49:59.430Z,99176.50
2022-09-23T08:52:33.349Z,99171.34
2022-09-23T08:55:01.701Z,99164.97
2022-09-23T08:57:42.406Z,99165.69
2022-09-23T09:00:18.801Z,99165.28
2022-09-23T09:02:45.934Z,99174.28
2022-09-23T09:05:16.990Z,99171.19
2022-09-23T09:07:44.650Z,99161.56
2022-09-23T09:10:18.741Z,99164.44
2022-09-23T09:12:50.406Z,99171.56
2022-09-23T09:15:24.329Z,99171.75
2022-09-23T09:18:01.193Z,99161.03
2022-09-23T09:20:38.966Z,99153.06
2022-09-23T09:23:15.585Z,99161.78
2022-09-23T09:25:44.789Z,99157.28
2022-09-23T09:28:19.111Z,99150.09
2022-09-23T09:30:50.436Z,99150.38
2022-09-23T09:33:18.991Z,99157.28
2022-09-23T09:36:03.948Z,99143.41
2022-09-23T09:38:31.850Z,99151.19
2022-09-23T09:41:09.166Z,99146.28
2022-09-23T09:43:44.043Z,99150.75
2022-09-23T09:46:26.412Z,99137.59
2022-09-23T09:48:57.942Z,99145.38
2022-09-23T09:51:27.399Z,99136.22
2022-09-23T09:53:56.081Z,99138.47
2022-09-23T09:56:31.202Z,99142.44
2022-09-23T09:59:02.007Z,99141.59
2022-09-23T10:01:31.145Z,99131.50
2022-09-23T10:04:00.771Z,99129.84
2022-09-23T10:06:29.560Z,99131.47
2022-09-23T10:09:15.267Z,99130.41
2022-09-23T10:11:44.580Z,99132.31
2022-09-23T10:14:17.574Z,99121.59
2022-09-23T10:16:45.571Z,99121.16
2022-09-23T10:19:22.106Z,99124.47
2022-09-23T10:21:57.045Z,99120.94
2022-09-23T10:24:26.083Z,99122.84
2022-09-23T10:26:58.084Z,99118.22
2022-09-23T10:29:31.037Z,99106.13
2022-09-23T10:32:25.585Z,99100.34
2022-09-23T10:34:55.666Z,99102.22
2022-09-23T10:37:37.461Z,99097.91
2022-09-23T10:40:33.811Z,99097.03
2022-09-23T10:43:36.716Z,99092.06
2022-09-23T10:46:26.744Z,99093.38
2022-09-23T10:49:16.574Z,99094.00
2022-09-23T10:51:52.129Z,99093.09
2022-09-23T10:54:31.764Z,99090.97
2022-09-23T10:57:27.522Z,99100.13
2022-09-23T11:00:02.555Z,99088.28
2022-09-23T11:02:55.454Z,99099.31
2022-09-23T11:05:41.506Z,99086.84
2022-09-23T11:08:27.502Z,99081.91
2022-09-23T11:11:09.958Z,99082.03
2022-09-23T11:13:54.153Z,99073.75
2022-09-23T11:16:32.045Z,99074.81
2022-09-23T11:19:12.447Z,99081.97
2022-09-23T11:22:14.100Z,99085.00
2022-09-23T11:24:50.164Z,99069.44
2022-09-23T11:27:27.403Z,99072.22
2022-09-23T11:30:03.406Z,99064.06
2022-09-23T11:32:55.867Z,99067.63
2022-09-23T11:35:29.477Z,99065.19
2022-09-23T11:38:02.115Z,99061.91
2022-09-23T11:40:33.070Z,99066.22
2022-09-23T11:43:04.249Z,99066.09
2022-09-23T11:45:34.641Z,99058.25
2022-09-23T11:48:09.772Z,99056.13
2022-09-23T11:50:42.976Z,99053.06
2022-09-23T11:53:18.790Z,99052.47
2022-09-23T11:55:58.027Z,99045.53
2022-09-23T11:58:29.657Z,99043.69
2022-09-23T12:01:01.213Z,99039.75
2022-09-23T12:03:44.477Z,99028.25
2022-09-23T12:06:18.631Z,99031.25
2022-09-23T12:08:45.655Z,99029.09
2022-09-23T12:11:25.368Z,99036.03
2022-09-23T12:14:05.258Z,99029.09
2022-09-23T12:16:50.723Z,99027.19
2022-09-23T12:19:38.765Z,99024.59
2022-09-23T12:22:25.659Z,99027.06
2022-09-23T12:24:59.581Z,99029.91
2022-09-23T12:27:32.618Z,99024.47
2022-09-23T12:30:02.988Z,99030.56
2022-09-23T12:32:30.980Z,99026.75
2022-09-23T12:34:58.268Z,99030.69
2022-09-23T12:37:31.678Z,99026.91
2022-09-23T12:40:02.246Z,99034.28
2022-09-23T12:42:31.324Z,99024.38
2022-09-23T12:45:34.805Z,99029.53
2022-09-23T12:48:03.244Z,99031.56
2022-09-23T12:51:13.362Z,99025.16
2022-09-23T12:54:01.626Z,99017.50
2022-09-23T12:56:59.176Z,99013.38
2022-09-23T12:59:28.209Z,99011.91
2022-09-23T13:01:56.250Z,99009.06
2022-09-23T13:05:01.184Z,99006.97
2022-09-23T13:07:32.068Z,99010.56
2022-09-23T13:10:08.964Z,99003.44
2022-09-23T13:12:39.526Z,99002.00
2022-09-23T13:15:17.002Z,98998.63
2022-09-23T13:17:43.914Z,98994.50
2022-09-23T13:20:38.283Z,99000.66
2022-09-23T13:23:24.181Z,98997.13
2022-09-23T13:25:55.620Z,98994.28
2022-09-23T13:28:41.727Z,98989.31
2022-09-23T13:31:15.960Z,98982.34
2022-09-23T13:33:46.177Z,98978.94
2022-09-23T13:36:16.326Z,98978.19
2022-09-23T13:38:43.626Z,98968.03
2022-09-23T13:41:15.231Z,98977.53
2022-09-23T13:43:45.377Z,98975.53
2022-09-23T13:46:16.266Z,98975.78
2022-09-23T13:48:45.362Z,98973.16
2022-09-23T13:51:21.722Z,98962.16
2022-09-23T13:53:53.691Z,98972.94
2022-09-23T13:56:24.915Z,98974.19
2022-09-23T13:58:52.354Z,98971.03
2022-09-23T14:01:24.486Z,98969.03
2022-09-23T14:03:51.497Z,98961.81
2022-09-23T14:06:18.554Z,98953.16
2022-09-23T14:08:48.289Z,98953.38
2022-09-23T14:11:16.574Z,98943.22
2022-09-23T14:13:47.045Z,98944.66
2022-09-23T14:16:16.079Z,98931.06
2022-09-23T14:18:45.418Z,98934.34
2022-09-23T14:21:30.251Z,98939.19
2022-09-23T14:23:57.165Z,98941.22
2022-09-23T14:26:24.789Z,98938.63
2022-09-23T14:28:53.994Z,98945.34
2022-09-23T14:31:20.983Z,98946.31
2022-09-23T14:33:47.943Z,98943.00
2022-09-23T14:36:36.336Z,98944.22
2022-09-23T14:39:05.270Z,98944.75
2022-09-23T14:41:37.156Z,98930.50
2022-09-23T14:44:07.338Z,98936.88
2022-09-23T14:46:37.027Z,98932.38
2022-09-23T14:49:07.757Z,98939.69
2022-09-23T14:51:44.600Z,98946.13
2022-09-23T14:54:35.266Z,98945.69
2022-09-23T14:57:05.938Z,98936.84
2022-09-23T14:59:36.626Z,98948.19
2022-09-23T15:02:31.430Z,98936.84
2022-09-23T15:05:14.650Z,98934.38
2022-09-23T15:07:44.077Z,98936.44
2022-09-23T15:10:19.963Z,98925.75
2022-09-23T15:12:49.094Z,98921.81
2022-09-23T15:15:18.749Z,98912.94
2022-09-23T15:17:46.628Z,98915.84
2022-09-23T15:20:23.924Z,98910.91
2022-09-23T15:22:54.086Z,98905.94
2022-09-23T15:25:28.090Z,98894.63
2022-09-23T15:28:01.098Z,98910.47
2022-09-23T15:30:31.580Z,98904.53
2022-09-23T15:32:58.590Z,98882.44
2022-09-23T15:35:26.704Z,98878.34
2022-09-23T15:37:58.442Z,98886.56
2022-09-23T15:40:27.259Z,98889.66
2022-09-23T15:42:56.388Z,98898.97
2022-09-23T15:45:31.451Z,98911.69
2022-09-23T15:48:03.259Z,98908.66
2022-09-23T15:50:31.325Z,98904.31
2022-09-23T15:52:58.326Z,98902.25
2022-09-23T15:55:25.294Z,98900.63
2022-09-23T15:57:52.671Z,98889.47
2022-09-23T16:00:19.873Z,98884.13
2022-09-23T16:02:49.398Z,98888.25
2022-09-23T16:05:26.648Z,98886.16
2022-09-23T16:07:53.519Z,98881.25
2022-09-23T16:10:22.067Z,98886.13
2022-09-23T16:12:49.948Z,98882.78
2022-09-23T16:15:19.552Z,98885.47
2022-09-23T16:17:47.801Z,98888.78
2022-09-23T16:20:16.869Z,98886.09
2022-09-23T16:22:48.296Z,98885.22
2022-09-23T16:25:15.658Z,98886.06
2022-09-23T16:27:42.469Z,98890.75
2022-09-23T16:30:11.008Z,98883.78
2022-09-23T16:32:38.242Z,98878.81
2022-09-23T16:35:08.438Z,98873.25
2022-09-23T16:37:35.345Z,98857.63
2022-09-23T16:40:04.241Z,98861.75
2022-09-23T16:42:31.220Z,98861.91
2022-09-23T16:44:58.039Z,98872.09
2022-09-23T16:47:24.993Z,98860.63
2022-09-23T16:49:51.857Z,98865.13
2022-09-23T16:52:20.098Z,98860.59
2022-09-23T16:54:48.037Z,98861.34
2022-09-23T16:57:15.141Z,98861.91
2022-09-23T17:00:00.413Z,98860.00
2022-09-23T17:02:45.810Z,98868.81
2022-09-23T17:05:16.390Z,98879.31
2022-09-23T17:07:44.807Z,98874.94
2022-09-23T17:10:12.015Z,98876.22
2022-09-23T17:12:38.858Z,98870.59
2022-09-23T17:15:07.432Z,98870.31
2022-09-23T17:17:37.058Z,98870.03
2022-09-23T17:20:05.823Z,98870.16
2022-09-23T17:22:33.617Z,98869.00
2022-09-23T17:25:03.869Z,98868.91
2022-09-23T17:27:31.993Z,98870.91
2022-09-23T17:29:59.120Z,98870.91
2022-09-23T17:32:26.774Z,98862.38
2022-09-23T17:34:53.606Z,98867.50
2022-09-23T17:37:20.418Z,98867.34
2022-09-23T17:39:47.291Z,98871.22
2022-09-23T17:42:15.706Z,98876.44
2022-09-23T17:44:42.619Z,98869.53
2022-09-23T17:47:10.571Z,98873.88
2022-09-23T17:49:37.392Z,98875.97
2022-09-23T17:52:05.779Z,98868.63
2022-09-23T17:54:32.772Z,98858.06
2022-09-23T17:56:59.962Z,98846.97
2022-09-23T17:59:28.468Z,98850.09
2022-09-23T18:01:55.408Z,98853.75
2022-09-23T18:04:22.401Z,98865.50
2022-09-23T18:06:49.276Z,98869.34
2022-09-23T18:09:16.106Z,98874.78
2022-09-23T18:11:45.094Z,98873.84
2022-09-23T18:14:15.560Z,98865.75
2022-09-23T18:16:45.820Z,98865.28
2022-09-23T18:19:14.583Z,98864.97
2022-09-23T18:21:43.304Z,98857.56
2022-09-23T18:24:31.187Z,98858.53
2022-09-23T18:26:59.886Z,98855.53
2022-09-23T18:29:26.996Z,98855.72
2022-09-23T18:31:55.408Z,98848.06
2022-09-23T18:34:23.673Z,98856.03
2022-09-23T18:36:50.852Z,98863.06
2022-09-23T18:39:18.031Z,98859.09
2022-09-23T18:41:44.906Z,98863.28
2022-09-23T18:44:11.822Z,98866.66
2022-09-23T18:46:38.763Z,98864.72
2022-09-23T18:49:25.651Z,98869.44
2022-09-23T18:51:55.600Z,98871.47
2022-09-23T18:54:23.168Z,98870.19
2022-09-23T18:56:52.533Z,98877.97
2022-09-23T18:59:21.306Z,98870.53
2022-09-23T19:01:50.187Z,98874.53
2022-09-23T19:04:20.777Z,98869.59
2022-09-23T19:06:48.061Z,98866.97
2022-09-23T19:09:15.961Z,98864.50
2022-09-23T19:11:43.012Z,98866.47
2022-09-23T19:14:11.491Z,98865.66
2022-09-23T19:16:39.615Z,98863.94
2022-09-23T19:19:07.135Z,98857.13
2022-09-23T19:21:35.717Z,98861.91
2022-09-23T19:24:05.080Z,98858.53
2022-09-23T19:26:34.858Z,98850.41
2022-09-23T19:29:03.245Z,98847.28
2022-09-23T19:31:33.433Z,98856.56
2022-09-23T19:34:02.402Z,98851.88
2022-09-23T19:36:30.967Z,98854.84
2022-09-23T19:39:02.905Z,98848.03
2022-09-23T19:41:35.445Z,98849.09
2022-09-23T19:44:03.832Z,98844.78
2022-09-23T19:46:32.464Z,98848.38
2022-09-23T19:49:00.486Z,98850.03
2022-09-23T19:51:28.329Z,98854.38
2022-09-23T19:53:55.137Z,98849.81
2022-09-23T19:56:23.514Z,98851.03
2022-09-23T19:58:54.261Z,98844.44
2022-09-23T20:01:21.808Z,98846.94
2022-09-23T20:03:49.487Z,98842.25
2022-09-23T20:06:17.567Z,98838.59
2022-09-23T20:08:45.022Z,98840.25
2022-09-23T20:11:13.715Z,98843.28
2022-09-23T20:13:49.602Z,98835.97
2022-09-23T20:16:18.136Z,98836.81
2022-09-23T20:18:46.791Z,98832.19
2022-09-23T20:21:15.425Z,98828.22
2022-09-23T20:23:42.707Z,98830.09
2022-09-23T20:26:28.938Z,98827.44
2022-09-23T20:29:00.931Z,98831.25
2022-09-23T20:31:28.822Z,98827.16
2022-09-23T20:33:58.501Z,98825.84
2022-09-23T20:36:25.824Z,98823.22
2022-09-23T20:38:56.427Z,98829.31
2022-09-23T20:41:23.421Z,98822.38
2022-09-23T20:43:53.443Z,98823.53
2022-09-23T20:46:24.890Z,98817.56
2022-09-23T20:48:52.168Z,98819.56
2022-09-23T20:51:18.979Z,98823.72
2022-09-23T20:53:48.485Z,98810.94
2022-09-23T20:56:16.496Z,98807.66
2022-09-23T20:58:44.575Z,98809.78
2022-09-23T21:01:11.907Z,98814.59
2022-09-23T21:03:41.875Z,98809.75
2022-09-23T21:06:10.781Z,98815.06
2022-09-23T21:08:38.018Z,98809.13
2022-09-23T21:11:08.067Z,98814.75
2022-09-23T21:13:35.321Z,98824.03
2022-09-23T21:16:03.070Z,98814.75
2022-09-23T21:18:30.145Z,98813.25
2022-09-23T21:20:59.730Z,98819.09
2022-09-23T21:23:27.537Z,98815.44
2022-09-23T21:26:00.337Z,98817.25
2022-09-23T21:28:30.963Z,98815.75
2022-09-23T21:30:58.731Z,98806.16
2022-09-23T21:33:25.902Z,98814.75
2022-09-23T21:35:54.447Z,98809.81
2022-09-23T21:38:23.124Z,98806.97
2022-09-23T21:40:55.791Z,98802.34
2022-09-23T21:43:23.595Z,98808.47
2022-09-23T21:45:56.997Z,98801.03
2022-09-23T21:48:24.333Z,98805.63
2022-09-23T21:50:54.960Z,98803.81
2022-09-23T21:53:23.888Z,98801.03
2022-09-23T21:55:51.148Z,98792.59
2022-09-23T21:58:18.054Z,98795.06
2022-09-23T22:00:45.253Z,98802.00
2022-09-23T22:03:12.374Z,98800.50
2022-09-23T22:05:44.015Z,98796.38
2022-09-23T22:08:10.740Z,98803.63
2022-09-23T22:10:38.988Z,98798.97
2022-09-23T22:13:12.543Z,98805.53
2022-09-23T22:15:39.867Z,98815.06
2022-09-23T22:18:06.764Z,98814.53
2022-09-23T22:20:34.222Z,98814.00
2022-09-23T22:23:01.128Z,98815.19
2022-09-23T22:25:28.860Z,98809.63
2022-09-23T22:28:15.860Z,98807.22
2022-09-23T22:31:01.038Z,98811.66
2022-09-23T22:33:27.954Z,98813.19
2022-09-23T22:36:01.741Z,98809.06
2022-09-23T22:38:28.805Z,98798.81
2022-09-23T22:40:55.735Z,98811.19
2022-09-23T22:43:24.004Z,98803.69
2022-09-23T22:45:51.606Z,98806.25
2022-09-23T22:48:19.894Z,98815.19
2022-09-23T22:50:46.803Z,98808.09
2022-09-23T22:53:13.959Z,98802.69
2022-09-23T22:55:42.117Z,98806.69
2022-09-23T22:58:30.768Z,98803.94
2022-09-23T23:00:58.228Z,98803.94
2022-09-23T23:03:27.047Z,98806.09
2022-09-23T23:05:57.620Z,98804.59
2022-09-23T23:08:24.672Z,98791.41
2022-09-23T23:10:51.648Z,98798.03
2022-09-23T23:13:19.224Z,98799.66
2022-09-23T23:15:46.109Z,98796.69
2022-09-23T23:18:14.909Z,98791.88
2022-09-23T23:20:41.825Z,98790.75
2022-09-23T23:23:08.672Z,98786.25
2022-09-23T23:25:35.483Z,98783.47
2022-09-23T23:28:05.590Z,98784.75
2022-09-23T23:30:33.603Z,98780.13
2022-09-23T23:33:00.582Z,98774.09
2022-09-23T23:35:28.841Z,98766.50
2022-09-23T23:37:55.768Z,98774.06
2022-09-23T23:40:22.842Z,98769.88
2022-09-23T23:42:49.767Z,98767.88
2022-09-23T23:45:17.429Z,98771.66
2022-09-23T23:47:44.621Z,98771.31
2022-09-23T23:50:11.495Z,98766.09
2022-09-23T23:52:39.789Z,98760.44
2022-09-23T23:55:07.112Z,98755.81
2022-09-23T23:57:33.973Z,98753.31
